createdAt,value
2018-06-09T00:00:22.946Z,23.60
2018-06-09T00:03:02.288Z,23.50
2018-06-09T00:05:42.027Z,23.40
2018-06-09T00:08:23.070Z,23.40
2018-06-09T00:11:02.787Z,23.30
2018-06-09T00:13:45.397Z,23.30
2018-06-09T00:16:25.518Z,23.20
2018-06-09T00:19:10.586Z,23.30
2018-06-09T00:21:55.248Z,23.20
2018-06-09T00:24:38.720Z,23.10
2018-06-09T00:27:20.649Z,23.10
2018-06-09T00:30:08.227Z,23.00
2018-06-09T00:32:57.986Z,23.10
2018-06-09T00:35:39.776Z,23.00
2018-06-09T00:38:20.337Z,22.90
2018-06-09T00:41:03.347Z,22.90
2018-06-09T00:43:45.378Z,23.00
2018-06-09T00:46:28.578Z,22.90
2018-06-09T00:49:09.997Z,23.00
2018-06-09T00:51:50.978Z,22.80
2018-06-09T00:54:33.547Z,22.80
2018-06-09T00:57:15.339Z,22.90
2018-06-09T00:59:58.778Z,22.70
2018-06-09T01:02:39.788Z,22.70
2018-06-09T01:05:20.768Z,22.60
2018-06-09T01:08:04.556Z,22.60
2018-06-09T01:10:46.351Z,22.60
2018-06-09T01:13:29.370Z,22.40
2018-06-09T01:16:09.937Z,22.30
2018-06-09T01:18:52.957Z,22.30
2018-06-09T01:21:38.439Z,22.30
2018-06-09T01:24:17.360Z,22.20
2018-06-09T01:26:58.737Z,22.20
2018-06-09T01:29:39.347Z,22.10
2018-06-09T01:32:27.247Z,22.00
2018-06-09T01:35:06.997Z,22.00
2018-06-09T01:37:48.000Z,21.90
2018-06-09T01:40:30.966Z,21.80
2018-06-09T01:43:15.236Z,21.60
2018-06-09T01:45:59.066Z,21.50
2018-06-09T01:48:44.137Z,21.40
2018-06-09T01:51:31.686Z,21.40
2018-06-09T01:54:16.730Z,21.50
2018-06-09T01:56:58.725Z,21.40
2018-06-09T01:59:39.504Z,21.40
2018-06-09T02:02:24.984Z,21.50
2018-06-09T02:05:06.076Z,21.40
2018-06-09T02:07:48.966Z,21.30
2018-06-09T02:10:29.534Z,21.30
2018-06-09T02:13:11.696Z,21.40
2018-06-09T02:15:51.885Z,21.40
2018-06-09T02:18:32.456Z,21.40
2018-06-09T02:21:14.256Z,21.40
2018-06-09T02:23:56.865Z,21.30
2018-06-09T02:26:37.827Z,21.30
2018-06-09T02:29:17.538Z,21.20
2018-06-09T02:31:59.775Z,21.20
2018-06-09T02:34:40.566Z,21.20
2018-06-09T02:37:28.928Z,21.20
2018-06-09T02:40:10.894Z,21.10
2018-06-09T02:42:53.057Z,21.10
2018-06-09T02:45:38.958Z,21.30
2018-06-09T02:48:22.455Z,21.30
2018-06-09T02:51:03.552Z,21.20
2018-06-09T02:53:46.391Z,21.30
2018-06-09T02:56:26.996Z,21.30
2018-06-09T02:59:13.107Z,21.40
2018-06-09T03:01:58.737Z,21.40
2018-06-09T03:04:45.936Z,21.50
2018-06-09T03:07:26.825Z,21.50
2018-06-09T03:10:09.966Z,21.70
2018-06-09T03:12:48.547Z,21.70
2018-06-09T03:15:30.155Z,21.80
2018-06-09T03:36:11.936Z,22.10
2018-06-09T03:39:03.266Z,22.50
2018-06-09T03:41:44.667Z,22.60
2018-06-09T03:44:25.410Z,22.70
2018-06-09T03:47:04.967Z,22.90
2018-06-09T03:49:53.737Z,22.70
2018-06-09T03:52:39.976Z,22.80
2018-06-09T03:55:26.726Z,22.70
2018-06-09T03:58:06.487Z,22.70
2018-06-09T04:00:49.086Z,22.70
2018-06-09T04:03:31.047Z,22.80
2018-06-09T04:06:12.437Z,22.70
2018-06-09T04:09:04.087Z,22.60
2018-06-09T04:12:00.031Z,22.70
2018-06-09T04:14:47.526Z,22.80
2018-06-09T04:17:36.296Z,22.80
2018-06-09T04:20:17.676Z,22.80
2018-06-09T04:22:57.437Z,22.70
2018-06-09T04:25:40.446Z,22.80
2018-06-09T04:28:23.608Z,22.80
2018-06-09T04:31:08.577Z,22.90
2018-06-09T04:33:49.916Z,22.80
2018-06-09T04:36:30.107Z,22.90
2018-06-09T04:39:18.618Z,23.00
2018-06-09T04:42:01.258Z,23.10
2018-06-09T04:44:48.146Z,23.00
2018-06-09T04:47:32.407Z,23.30
2018-06-09T04:50:20.708Z,23.40
2018-06-09T04:53:07.450Z,23.50
2018-06-09T04:55:52.707Z,23.80
2018-06-09T04:58:34.729Z,24.20
2018-06-09T05:01:19.767Z,24.70
2018-06-09T05:04:02.156Z,25.30
2018-06-09T05:06:47.517Z,26.20
2018-06-09T05:09:30.270Z,26.80
2018-06-09T05:12:09.590Z,27.80
2018-06-09T05:14:52.438Z,28.30
2018-06-09T05:17:39.559Z,29.20
2018-06-09T05:20:24.626Z,29.60
2018-06-09T05:23:08.868Z,29.80
2018-06-09T05:25:51.928Z,30.40
2018-06-09T05:28:35.327Z,30.10
2018-06-09T05:31:18.113Z,30.40
2018-06-09T05:34:05.039Z,30.10
2018-06-09T05:36:46.438Z,30.50
2018-06-09T05:39:27.408Z,30.80
2018-06-09T05:42:09.407Z,31.60
2018-06-09T05:44:51.198Z,31.30
2018-06-09T05:47:36.268Z,31.20
2018-06-09T05:50:25.408Z,30.60
2018-06-09T05:53:07.768Z,31.00
2018-06-09T05:55:48.607Z,31.00
2018-06-09T05:58:31.627Z,29.80
2018-06-09T06:01:13.157Z,29.10
2018-06-09T06:22:14.395Z,25.60
2018-06-09T06:24:50.189Z,25.70
2018-06-09T06:27:20.063Z,25.50
2018-06-09T06:29:49.804Z,25.50
2018-06-09T06:32:19.423Z,25.50
2018-06-09T06:34:49.182Z,25.60
2018-06-09T06:37:18.808Z,25.70
2018-06-09T06:39:48.535Z,25.40
2018-06-09T06:42:18.165Z,25.30
2018-06-09T06:44:47.766Z,25.30
2018-06-09T06:47:17.191Z,25.40
2018-06-09T06:49:47.025Z,25.70
2018-06-09T06:52:16.665Z,25.90
2018-06-09T06:54:46.286Z,25.60
2018-06-09T06:57:15.833Z,25.40
2018-06-09T06:59:45.533Z,25.60
2018-06-09T07:02:15.073Z,25.40
2018-06-09T07:04:44.549Z,25.60
2018-06-09T07:07:14.373Z,25.80
2018-06-09T07:09:43.934Z,26.20
2018-06-09T07:12:13.568Z,26.60
2018-06-09T07:14:43.023Z,26.90
2018-06-09T07:17:12.545Z,27.00
2018-06-09T07:19:42.046Z,27.20
2018-06-09T07:22:11.865Z,27.00
2018-06-09T07:24:41.465Z,27.20
2018-06-09T07:27:11.025Z,27.10
2018-06-09T07:29:40.593Z,27.50
2018-06-09T07:32:10.193Z,27.60
2018-06-09T07:34:39.628Z,27.50
2018-06-09T07:37:09.220Z,27.80
2018-06-09T07:39:38.735Z,27.80
2018-06-09T07:42:08.267Z,28.20
2018-06-09T07:44:37.786Z,28.20
2018-06-09T07:47:07.020Z,28.20
2018-06-09T07:49:36.759Z,27.90
2018-06-09T07:52:06.659Z,27.90
2018-06-09T07:54:36.226Z,28.00
2018-06-09T07:57:05.660Z,28.10
2018-06-09T07:59:35.015Z,27.50
2018-06-09T08:02:04.515Z,27.50
2018-06-09T08:04:34.212Z,27.80
2018-06-09T08:07:03.412Z,27.90
2018-06-09T08:09:33.274Z,27.90
2018-06-09T08:12:02.989Z,28.10
2018-06-09T08:14:32.455Z,28.00
2018-06-09T08:17:02.075Z,28.60
2018-06-09T08:19:32.659Z,28.50
2018-06-09T08:22:02.376Z,28.50
2018-06-09T08:24:31.577Z,28.60
2018-06-09T08:27:01.153Z,28.50
2018-06-09T08:29:30.522Z,28.60
2018-06-09T08:32:00.029Z,28.60
2018-06-09T08:34:29.863Z,28.40
2018-06-09T08:36:59.463Z,28.50
2018-06-09T08:39:29.173Z,28.70
2018-06-09T08:41:58.740Z,28.40
2018-06-09T08:44:28.855Z,28.40
2018-06-09T08:46:58.234Z,28.30
2018-06-09T08:49:27.246Z,28.50
2018-06-09T08:51:56.687Z,28.30
2018-06-09T08:54:26.387Z,28.00
2018-06-09T08:56:55.883Z,28.20
2018-06-09T08:59:25.527Z,28.50
2018-06-09T09:01:55.510Z,28.40
2018-06-09T09:04:25.248Z,28.30
2018-06-09T09:06:54.754Z,28.40
2018-06-09T09:09:24.295Z,28.80
2018-06-09T09:11:54.155Z,28.60
2018-06-09T09:14:23.652Z,28.90
2018-06-09T09:16:53.353Z,28.60
2018-06-09T09:19:22.968Z,29.10
2018-06-09T09:21:52.614Z,29.60
2018-06-09T09:24:22.271Z,29.60
2018-06-09T09:26:52.010Z,29.60
2018-06-09T09:29:21.487Z,29.60
2018-06-09T09:31:50.867Z,29.40
2018-06-09T09:34:20.107Z,29.70
2018-06-09T09:36:49.585Z,30.00
2018-06-09T09:39:19.465Z,30.10
2018-06-09T09:41:49.112Z,30.00
2018-06-09T09:44:18.839Z,30.10
2018-06-09T09:46:48.338Z,30.10
2018-06-09T09:49:17.831Z,29.70
2018-06-09T09:51:47.391Z,29.90
2018-06-09T09:54:16.973Z,29.80
2018-06-09T09:56:46.609Z,29.50
2018-06-09T09:59:16.396Z,29.70
2018-06-09T10:01:46.479Z,29.70
2018-06-09T10:04:15.932Z,29.80
2018-06-09T10:06:45.211Z,29.80
2018-06-09T10:09:14.766Z,29.80
2018-06-09T10:11:43.877Z,29.90
2018-06-09T10:14:13.642Z,30.40
2018-06-09T10:16:43.403Z,30.20
2018-06-09T10:19:12.749Z,30.30
2018-06-09T10:21:42.221Z,30.70
2018-06-09T10:24:11.961Z,30.50
2018-06-09T10:26:41.490Z,30.10
2018-06-09T10:29:11.154Z,30.30
2018-06-09T10:31:40.544Z,30.30
2018-06-09T10:34:10.174Z,30.40
2018-06-09T10:36:39.815Z,30.80
2018-06-09T10:39:09.454Z,31.00
2018-06-09T10:41:39.015Z,31.10
2018-06-09T10:44:08.656Z,31.00
2018-06-09T10:46:38.154Z,30.90
2018-06-09T10:49:07.817Z,31.20
2018-06-09T10:51:37.426Z,31.40
2018-06-09T10:54:06.783Z,31.20
2018-06-09T10:56:36.552Z,31.40
2018-06-09T10:59:06.449Z,31.40
2018-06-09T11:01:36.001Z,31.10
2018-06-09T11:04:05.761Z,31.40
2018-06-09T11:06:35.168Z,31.40
2018-06-09T11:09:06.901Z,31.40
2018-06-09T11:11:36.539Z,31.40
2018-06-09T11:14:06.041Z,31.20
2018-06-09T11:16:35.570Z,31.10
2018-06-09T11:19:04.910Z,31.30
2018-06-09T11:21:34.431Z,31.60
2018-06-09T11:24:03.855Z,32.10
2018-06-09T11:26:33.633Z,33.00
2018-06-09T11:29:03.980Z,33.30
2018-06-09T11:31:33.394Z,33.60
2018-06-09T11:34:03.012Z,33.40
2018-06-09T11:36:32.577Z,32.90
2018-06-09T11:39:02.129Z,32.90
2018-06-09T11:41:31.831Z,32.20
2018-06-09T11:44:01.793Z,32.50
2018-06-09T11:46:31.387Z,32.90
2018-06-09T11:49:01.868Z,32.50
2018-06-09T11:51:31.205Z,32.30
2018-06-09T11:54:00.748Z,32.60
2018-06-09T11:56:30.307Z,32.60
2018-06-09T11:58:59.887Z,32.70
2018-06-09T12:01:29.387Z,32.30
2018-06-09T12:03:59.282Z,31.70
2018-06-09T12:06:28.689Z,32.00
2018-06-09T12:08:58.632Z,32.00
2018-06-09T12:11:28.070Z,31.90
2018-06-09T12:13:57.023Z,31.90
2018-06-09T12:16:26.652Z,31.80
2018-06-09T12:18:56.153Z,31.90
2018-06-09T12:21:25.748Z,31.80
2018-06-09T12:23:55.306Z,31.90
2018-06-09T12:26:24.772Z,32.50
2018-06-09T12:28:54.245Z,32.50
2018-06-09T12:31:23.745Z,32.20
2018-06-09T12:33:53.012Z,32.00
2018-06-09T12:36:22.407Z,31.80
2018-06-09T12:38:52.108Z,31.60
2018-06-09T12:41:22.108Z,31.80
2018-06-09T12:43:52.113Z,32.10
2018-06-09T12:46:21.993Z,32.40
2018-06-09T12:48:51.243Z,32.50
2018-06-09T12:51:20.832Z,32.90
2018-06-09T12:53:50.273Z,33.30
2018-06-09T12:56:19.494Z,33.50
2018-06-09T12:58:49.073Z,33.20
2018-06-09T13:01:18.592Z,33.40
2018-06-09T13:03:48.484Z,33.70
2018-06-09T13:06:18.381Z,33.80
2018-06-09T13:08:47.902Z,34.10
2018-06-09T13:11:17.360Z,34.30
2018-06-09T13:13:47.201Z,34.90
2018-06-09T13:16:16.901Z,35.10
2018-06-09T13:18:46.141Z,35.40
2018-06-09T13:21:15.941Z,34.90
2018-06-09T13:23:45.412Z,35.30
2018-06-09T13:26:14.955Z,35.20
2018-06-09T13:28:44.445Z,35.20
2018-06-09T13:31:13.965Z,35.70
2018-06-09T13:33:43.605Z,35.70
2018-06-09T13:36:13.386Z,35.40
2018-06-09T13:38:43.099Z,35.20
2018-06-09T13:41:12.666Z,35.80
2018-06-09T13:43:42.438Z,35.70
2018-06-09T13:46:12.005Z,35.90
2018-06-09T13:48:41.636Z,35.90
2018-06-09T13:51:11.236Z,36.00
2018-06-09T13:53:40.796Z,36.00
2018-06-09T13:56:10.205Z,36.00
2018-06-09T13:58:39.516Z,35.70
2018-06-09T14:01:09.086Z,35.70
2018-06-09T14:03:38.554Z,35.60
2018-06-09T14:06:08.111Z,35.80
2018-06-09T14:08:37.599Z,36.00
2018-06-09T14:11:07.496Z,35.90
2018-06-09T14:13:37.125Z,35.90
2018-06-09T14:16:06.636Z,36.00
2018-06-09T14:21:20.400Z,36.10
2018-06-09T14:23:50.072Z,36.20
2018-06-09T14:26:19.750Z,36.40
2018-06-09T14:28:49.270Z,36.20
2018-06-09T14:31:18.345Z,35.80
2018-06-09T14:33:47.968Z,35.70
2018-06-09T14:36:17.666Z,35.50
2018-06-09T14:38:47.468Z,35.40
2018-06-09T14:41:17.544Z,34.80
2018-06-09T14:43:47.076Z,34.70
2018-06-09T14:46:16.553Z,34.30
2018-06-09T14:48:46.112Z,34.20
2018-06-09T14:51:15.732Z,34.40
2018-06-09T14:53:45.351Z,33.80
2018-06-09T14:56:15.047Z,33.30
2018-06-09T14:58:44.253Z,33.90
2018-06-09T15:01:13.806Z,34.00
2018-06-09T15:03:43.346Z,34.30
2018-06-09T15:06:12.890Z,34.40
2018-06-09T15:08:42.795Z,33.70
2018-06-09T15:11:12.352Z,33.70
2018-06-09T15:13:41.746Z,33.80
2018-06-09T15:16:11.272Z,34.10
2018-06-09T15:18:41.307Z,34.20
2018-06-09T15:21:10.904Z,34.20
2018-06-09T15:23:40.340Z,34.10
2018-06-09T15:26:10.523Z,33.90
2018-06-09T15:28:40.188Z,33.50
2018-06-09T15:31:09.993Z,32.40
2018-06-09T15:33:39.568Z,31.90
2018-06-09T15:36:09.207Z,31.40
2018-06-09T15:38:38.659Z,31.40
2018-06-09T15:41:08.199Z,31.60
2018-06-09T15:43:37.979Z,31.50
2018-06-09T15:46:07.609Z,31.40
2018-06-09T15:48:36.854Z,31.30
2018-06-09T15:51:06.679Z,31.30
2018-06-09T15:53:36.290Z,31.20
2018-06-09T15:56:05.786Z,31.20
2018-06-09T15:58:35.545Z,31.30
2018-06-09T16:01:04.877Z,31.20
2018-06-09T16:03:34.474Z,31.00
2018-06-09T16:06:03.959Z,30.90
2018-06-09T16:08:33.299Z,30.60
2018-06-09T16:11:02.783Z,30.40
2018-06-09T16:13:32.367Z,30.20
2018-06-09T16:16:02.198Z,30.00
2018-06-09T16:18:31.732Z,29.90
2018-06-09T16:21:01.333Z,29.80
2018-06-09T16:23:30.913Z,29.50
2018-06-09T16:26:00.374Z,29.40
2018-06-09T16:28:29.922Z,28.80
2018-06-09T16:30:59.475Z,28.20
2018-06-09T16:33:28.968Z,27.80
2018-06-09T16:35:58.190Z,27.30
2018-06-09T16:38:27.408Z,26.80
2018-06-09T16:40:56.748Z,26.60
2018-06-09T16:43:26.250Z,26.50
2018-06-09T16:45:55.807Z,26.50
2018-06-09T16:48:25.346Z,26.70
2018-06-09T16:50:54.937Z,26.90
2018-06-09T16:53:24.749Z,27.00
2018-06-09T16:55:54.155Z,27.30
2018-06-09T16:58:23.590Z,27.60
2018-06-09T17:00:53.073Z,27.70
2018-06-09T17:03:22.349Z,27.80
2018-06-09T17:05:52.049Z,28.10
2018-06-09T17:08:21.870Z,28.30
2018-06-09T17:10:51.542Z,28.50
2018-06-09T17:13:20.714Z,28.50
2018-06-09T17:15:50.271Z,28.60
2018-06-09T17:18:19.966Z,28.50
2018-06-09T17:20:49.345Z,28.30
2018-06-09T17:23:18.950Z,28.10
2018-06-09T17:25:48.507Z,28.00
2018-06-09T17:28:18.045Z,27.90
2018-06-09T17:30:47.568Z,27.80
2018-06-09T17:33:17.249Z,27.80
2018-06-09T17:35:46.694Z,27.70
2018-06-09T17:38:16.269Z,27.70
2018-06-09T17:40:45.906Z,27.60
2018-06-09T17:43:15.470Z,27.50
2018-06-09T17:45:47.064Z,27.50
2018-06-09T17:48:16.720Z,27.30
2018-06-09T17:50:46.240Z,27.40
2018-06-09T17:53:15.876Z,27.30
2018-06-09T17:55:45.174Z,27.10
2018-06-09T17:58:14.913Z,27.00
2018-06-09T18:00:44.585Z,26.90
2018-06-09T18:03:14.291Z,26.90
2018-06-09T18:05:43.918Z,26.70
2018-06-09T18:08:13.817Z,26.60
2018-06-09T18:10:43.438Z,26.70
2018-06-09T18:13:12.762Z,26.60
2018-06-09T18:15:42.774Z,26.50
2018-06-09T18:18:12.564Z,26.50
2018-06-09T18:20:41.918Z,26.50
2018-06-09T18:23:11.493Z,26.30
2018-06-09T18:25:41.107Z,26.30
2018-06-09T18:28:10.612Z,26.30
2018-06-09T18:30:40.114Z,26.10
2018-06-09T18:33:09.780Z,25.80
2018-06-09T18:35:39.399Z,25.70
2018-06-09T18:38:09.039Z,25.80
2018-06-09T18:40:38.880Z,25.80
2018-06-09T18:43:08.440Z,25.70
2018-06-09T18:45:38.099Z,25.70
2018-06-09T18:48:07.460Z,25.60
2018-06-09T18:50:37.020Z,25.70
2018-06-09T18:53:07.081Z,25.70
2018-06-09T18:55:36.859Z,25.60
2018-06-09T18:58:06.630Z,25.60
2018-06-09T19:00:36.313Z,25.60
2018-06-09T19:03:06.090Z,25.50
2018-06-09T19:05:35.871Z,25.40
2018-06-09T19:08:05.629Z,25.40
2018-06-09T19:10:35.229Z,25.30
2018-06-09T19:13:04.850Z,25.40
2018-06-09T19:15:34.349Z,25.30
2018-06-09T19:18:04.209Z,25.30
2018-06-09T19:20:34.490Z,25.30
2018-06-09T19:23:04.270Z,25.30
2018-06-09T19:25:34.195Z,25.20
2018-06-09T19:28:04.689Z,25.20
2018-06-09T19:30:34.369Z,25.10
2018-06-09T19:33:04.010Z,25.10
2018-06-09T19:35:33.230Z,25.10
2018-06-09T19:38:02.870Z,25.10
2018-06-09T19:40:32.430Z,25.00
2018-06-09T19:43:02.190Z,25.10
2018-06-09T19:45:31.755Z,25.10
2018-06-09T19:48:01.856Z,25.10
2018-06-09T19:50:31.494Z,25.10
2018-06-09T19:53:01.014Z,25.10
2018-06-09T19:55:30.586Z,25.00
2018-06-09T19:58:00.246Z,25.00
2018-06-09T20:00:30.209Z,25.10
2018-06-09T20:03:00.145Z,25.10
2018-06-09T20:05:29.965Z,25.10
2018-06-09T20:08:00.086Z,25.00
2018-06-09T20:10:30.082Z,25.00
2018-06-09T20:12:59.944Z,25.10
2018-06-09T20:15:29.919Z,24.90
2018-06-09T20:17:59.619Z,24.80
2018-06-09T20:20:29.620Z,24.70
2018-06-09T20:23:00.461Z,24.50
2018-06-09T20:25:30.563Z,24.50
2018-06-09T20:28:00.298Z,24.50
2018-06-09T20:30:30.005Z,24.40
2018-06-09T20:32:59.919Z,24.30
2018-06-09T20:35:29.638Z,24.20
2018-06-09T20:37:59.205Z,24.10
2018-06-09T20:40:29.238Z,24.20
2018-06-09T20:42:58.898Z,24.10
2018-06-09T20:45:29.038Z,24.00
2018-06-09T20:47:58.938Z,24.00
2018-06-09T20:50:28.702Z,24.10
2018-06-09T20:52:58.738Z,24.00
2018-06-09T20:55:28.418Z,24.00
2018-06-09T20:57:58.058Z,24.00
2018-06-09T21:00:27.918Z,24.00
2018-06-09T21:02:57.658Z,24.10
2018-06-09T21:05:27.258Z,24.10
2018-06-09T21:07:56.997Z,24.10
2018-06-09T21:10:26.658Z,23.80
2018-06-09T21:12:56.358Z,23.80
2018-06-09T21:15:26.059Z,23.80
2018-06-09T21:17:55.799Z,23.70
2018-06-09T21:20:25.538Z,23.80
2018-06-09T21:22:54.958Z,23.80
2018-06-09T21:25:24.639Z,23.70
2018-06-09T21:27:59.458Z,23.80
2018-06-09T21:30:34.459Z,23.70
2018-06-09T21:33:09.578Z,23.70
2018-06-09T21:35:58.359Z,23.60
2018-06-09T21:38:28.558Z,23.60
2018-06-09T21:41:02.218Z,23.70
2018-06-09T21:43:37.218Z,23.60
2018-06-09T21:46:06.819Z,23.60
2018-06-09T21:48:36.258Z,23.60
2018-06-09T21:51:05.839Z,23.70
2018-06-09T21:53:35.439Z,23.70
2018-06-09T21:56:05.058Z,23.70
2018-06-09T21:58:34.719Z,23.70
2018-06-09T22:01:04.259Z,23.60
2018-06-09T22:03:33.839Z,23.50
2018-06-09T22:06:03.420Z,23.50
2018-06-09T22:08:33.160Z,23.60
2018-06-09T22:11:02.858Z,23.50
2018-06-09T22:13:32.516Z,23.50
2018-06-09T22:16:02.139Z,23.50
2018-06-09T22:18:31.838Z,23.50
2018-06-09T22:21:01.499Z,23.50
2018-06-09T22:23:31.008Z,23.60
2018-06-09T22:26:00.484Z,23.60
2018-06-09T22:28:30.038Z,23.60
2018-06-09T22:31:00.058Z,23.40
2018-06-09T22:33:29.738Z,23.40
2018-06-09T22:35:59.218Z,23.40
2018-06-09T22:38:28.738Z,23.30
2018-06-09T22:40:58.977Z,23.40
2018-06-09T22:43:28.958Z,23.30
2018-06-09T22:45:58.858Z,23.20
2018-06-09T22:48:28.337Z,23.20
2018-06-09T22:50:58.181Z,22.90
2018-06-09T22:53:28.578Z,22.90
2018-06-09T22:55:58.578Z,22.70
2018-06-09T22:58:28.019Z,22.60
2018-06-09T23:00:59.118Z,22.90
2018-06-09T23:03:28.799Z,22.90
2018-06-09T23:05:58.379Z,22.80
2018-06-09T23:08:27.978Z,22.70
2018-06-09T23:10:57.540Z,22.70
2018-06-09T23:13:27.719Z,22.70
2018-06-09T23:15:57.259Z,22.30
2018-06-09T23:18:26.738Z,22.20
2018-06-09T23:20:56.538Z,22.00
2018-06-09T23:23:26.379Z,22.60
2018-06-09T23:25:56.319Z,22.40
2018-06-09T23:28:25.498Z,22.40
2018-06-09T23:30:55.319Z,22.10
2018-06-09T23:33:24.678Z,22.20
2018-06-09T23:35:54.578Z,22.20
2018-06-09T23:38:24.598Z,22.20
2018-06-09T23:40:54.458Z,22.10
2018-06-09T23:43:24.004Z,22.10
2018-06-09T23:45:53.659Z,22.20
2018-06-09T23:48:23.158Z,22.10
2018-06-09T23:50:52.679Z,22.10
2018-06-09T23:53:22.318Z,22.10
2018-06-09T23:55:51.758Z,22.10
2018-06-09T23:58:21.338Z,22.10
